createdAt,value
2017-11-15T00:00:35.603Z,6.18
2017-11-15T00:01:35.515Z,6.21
2017-11-15T00:02:35.431Z,6.19
2017-11-15T00:03:35.388Z,6.38
2017-11-15T00:04:35.265Z,6.30
2017-11-15T00:05:35.164Z,6.32
2017-11-15T00:06:35.088Z,6.26
2017-11-15T00:07:34.996Z,6.13
2017-11-15T00:08:34.904Z,6.21
2017-11-15T00:09:34.822Z,6.35
2017-11-15T00:10:34.731Z,6.35
2017-11-15T00:11:34.638Z,6.26
2017-11-15T00:12:34.553Z,6.22
2017-11-15T00:13:34.468Z,6.16
2017-11-15T00:14:34.373Z,6.14
2017-11-15T00:15:34.287Z,6.21
2017-11-15T00:16:34.197Z,6.10
2017-11-15T00:17:34.124Z,6.19
2017-11-15T00:18:34.029Z,6.14
2017-11-15T00:19:33.934Z,6.21
2017-11-15T00:20:33.859Z,6.25
2017-11-15T00:21:33.763Z,6.26
2017-11-15T00:22:33.677Z,6.10
2017-11-15T00:23:33.591Z,6.13
2017-11-15T00:24:33.496Z,6.10
2017-11-15T00:25:33.412Z,6.06
2017-11-15T00:26:33.320Z,5.91
2017-11-15T00:27:33.231Z,5.78
2017-11-15T00:28:33.144Z,6.00
2017-11-15T00:29:33.055Z,5.89
2017-11-15T00:30:32.979Z,5.93
2017-11-15T00:31:32.889Z,5.88
2017-11-15T00:32:32.792Z,5.85
2017-11-15T00:33:32.703Z,5.75
2017-11-15T00:34:32.624Z,5.88
2017-11-15T00:35:32.528Z,5.92
2017-11-15T00:36:32.438Z,6.04
2017-11-15T00:37:32.357Z,5.98
2017-11-15T00:38:32.257Z,5.92
2017-11-15T00:39:32.175Z,5.96
2017-11-15T00:40:32.086Z,5.98
2017-11-15T00:41:31.999Z,5.95
2017-11-15T00:42:31.916Z,5.92
2017-11-15T00:43:31.824Z,5.91
2017-11-15T00:44:31.736Z,5.82
2017-11-15T00:45:31.650Z,5.85
2017-11-15T00:46:31.564Z,5.73
2017-11-15T00:47:31.483Z,5.77
2017-11-15T00:48:31.385Z,5.88
2017-11-15T00:49:31.292Z,5.95
2017-11-15T00:50:31.205Z,6.01
2017-11-15T00:51:31.117Z,6.04
2017-11-15T00:52:31.029Z,5.96
2017-11-15T00:53:30.945Z,5.75
2017-11-15T00:54:30.857Z,5.83
2017-11-15T00:55:30.817Z,5.88
2017-11-15T00:56:30.680Z,5.86
2017-11-15T00:57:30.595Z,5.86
2017-11-15T00:58:30.503Z,5.91
2017-11-15T00:59:30.425Z,5.91
2017-11-15T01:00:30.339Z,5.89
2017-11-15T01:01:30.250Z,5.74
2017-11-15T01:02:30.161Z,5.63
2017-11-15T01:03:30.069Z,5.74
2017-11-15T01:04:29.976Z,5.75
2017-11-15T01:05:29.881Z,5.75
2017-11-15T01:06:29.797Z,5.82
2017-11-15T01:07:29.706Z,5.91
2017-11-15T01:08:29.622Z,5.78
2017-11-15T01:09:29.554Z,5.78
2017-11-15T01:10:29.443Z,5.89
2017-11-15T01:11:29.356Z,5.85
2017-11-15T01:12:29.269Z,5.98
2017-11-15T01:13:29.201Z,5.91
2017-11-15T01:14:29.101Z,5.78
2017-11-15T01:15:29.013Z,5.89
2017-11-15T01:16:28.930Z,5.83
2017-11-15T01:17:28.833Z,5.75
2017-11-15T01:18:28.734Z,5.82
2017-11-15T01:19:28.648Z,5.88
2017-11-15T01:20:28.562Z,5.86
2017-11-15T01:21:28.471Z,5.83
2017-11-15T01:22:28.383Z,5.89
2017-11-15T01:23:28.292Z,5.83
2017-11-15T01:24:28.213Z,5.82
2017-11-15T01:25:28.131Z,5.59
2017-11-15T01:26:28.033Z,5.57
2017-11-15T01:27:27.936Z,5.71
2017-11-15T01:28:27.859Z,5.71
2017-11-15T01:29:27.770Z,5.75
2017-11-15T01:30:27.680Z,5.73
2017-11-15T01:31:27.602Z,5.74
2017-11-15T01:32:27.498Z,5.57
2017-11-15T01:33:27.413Z,5.57
2017-11-15T01:34:27.325Z,5.67
2017-11-15T01:35:27.233Z,5.66
2017-11-15T01:36:27.152Z,5.67
2017-11-15T01:37:27.063Z,5.66
2017-11-15T01:38:26.983Z,5.70
2017-11-15T01:39:26.881Z,5.85
2017-11-15T01:40:26.792Z,5.82
2017-11-15T01:41:26.711Z,5.71
2017-11-15T01:42:26.625Z,5.60
2017-11-15T01:43:26.529Z,5.56
2017-11-15T01:44:26.450Z,5.55
2017-11-15T01:45:26.358Z,5.48
2017-11-15T01:46:26.261Z,5.60
2017-11-15T01:47:26.171Z,5.63
2017-11-15T01:48:26.085Z,5.64
2017-11-15T01:49:26.037Z,5.74
2017-11-15T01:50:25.912Z,5.60
2017-11-15T01:51:25.819Z,5.56
2017-11-15T01:52:25.739Z,5.55
2017-11-15T01:53:25.650Z,5.57
2017-11-15T01:54:25.558Z,5.53
2017-11-15T01:55:25.477Z,5.53
2017-11-15T01:56:25.377Z,5.52
2017-11-15T01:57:25.290Z,5.53
2017-11-15T01:58:25.198Z,5.59
2017-11-15T01:59:25.133Z,5.45
2017-11-15T02:00:25.028Z,5.48
2017-11-15T02:01:24.938Z,5.50
2017-11-15T02:02:24.850Z,5.46
2017-11-15T02:03:24.761Z,5.57
2017-11-15T02:04:24.679Z,5.45
2017-11-15T02:05:24.612Z,5.46
2017-11-15T02:06:24.503Z,5.49
2017-11-15T02:07:24.414Z,5.46
2017-11-15T02:08:24.318Z,5.55
2017-11-15T02:09:24.235Z,5.50
2017-11-15T02:10:24.142Z,5.50
2017-11-15T02:11:24.055Z,5.49
2017-11-15T02:12:23.973Z,5.57
2017-11-15T02:13:23.881Z,5.59
2017-11-15T02:14:23.785Z,5.63
2017-11-15T02:15:23.698Z,5.34
2017-11-15T02:16:23.611Z,5.14
2017-11-15T02:17:23.520Z,5.17
2017-11-15T02:18:23.439Z,5.37
2017-11-15T02:19:23.366Z,5.43
2017-11-15T02:20:23.268Z,5.40
2017-11-15T02:21:23.167Z,5.43
2017-11-15T02:22:23.075Z,5.22
2017-11-15T02:23:22.995Z,5.35
2017-11-15T02:24:22.902Z,5.34
2017-11-15T02:25:22.810Z,5.37
2017-11-15T02:26:22.726Z,5.38
2017-11-15T02:27:22.634Z,5.49
2017-11-15T02:28:22.555Z,5.25
2017-11-15T02:29:22.459Z,5.38
2017-11-15T02:30:22.368Z,5.40
2017-11-15T02:31:22.276Z,5.34
2017-11-15T02:32:22.193Z,5.31
2017-11-15T02:33:22.100Z,5.43
2017-11-15T02:34:22.015Z,5.31
2017-11-15T02:35:21.928Z,5.43
2017-11-15T02:36:21.843Z,5.35
2017-11-15T02:37:21.750Z,5.37
2017-11-15T02:38:21.658Z,5.41
2017-11-15T02:39:21.570Z,5.46
2017-11-15T02:40:21.485Z,5.34
2017-11-15T02:41:21.418Z,5.40
2017-11-15T02:42:21.301Z,5.45
2017-11-15T02:43:21.218Z,5.40
2017-11-15T02:44:21.146Z,5.37
2017-11-15T02:45:21.045Z,5.32
2017-11-15T02:46:20.966Z,5.20
2017-11-15T02:47:20.955Z,5.02
2017-11-15T02:48:20.781Z,5.12
2017-11-15T02:49:20.683Z,5.27
2017-11-15T02:50:20.590Z,5.27
2017-11-15T02:51:20.504Z,5.19
2017-11-15T02:52:20.442Z,5.20
2017-11-15T02:53:20.326Z,4.89
2017-11-15T02:54:20.240Z,4.99
2017-11-15T02:55:20.150Z,5.27
2017-11-15T02:56:20.064Z,5.23
2017-11-15T02:57:19.980Z,5.13
2017-11-15T02:58:19.886Z,5.28
2017-11-15T02:59:19.794Z,5.25
2017-11-15T03:00:19.718Z,5.27
2017-11-15T03:01:19.649Z,5.10
2017-11-15T03:02:19.534Z,5.20
2017-11-15T03:03:19.458Z,5.16
2017-11-15T03:04:19.352Z,5.04
2017-11-15T03:05:19.264Z,5.17
2017-11-15T03:06:19.185Z,5.09
2017-11-15T03:07:19.083Z,5.07
2017-11-15T03:08:18.998Z,5.09
2017-11-15T03:09:18.908Z,5.17
2017-11-15T03:10:18.820Z,5.04
2017-11-15T03:11:18.734Z,5.09
2017-11-15T03:12:18.639Z,5.14
2017-11-15T03:13:18.555Z,5.13
2017-11-15T03:14:18.484Z,5.13
2017-11-15T03:15:18.377Z,5.19
2017-11-15T03:16:18.300Z,5.27
2017-11-15T03:17:18.223Z,5.14
2017-11-15T03:18:18.108Z,5.12
2017-11-15T03:19:18.026Z,4.94
2017-11-15T03:20:17.933Z,5.07
2017-11-15T03:21:17.837Z,5.04
2017-11-15T03:22:17.801Z,4.98
2017-11-15T03:23:17.666Z,5.12
2017-11-15T03:24:17.579Z,5.07
2017-11-15T03:25:17.493Z,5.05
2017-11-15T03:26:17.395Z,5.07
2017-11-15T03:27:17.305Z,5.05
2017-11-15T03:28:17.223Z,5.02
2017-11-15T03:29:17.130Z,5.12
2017-11-15T03:30:17.053Z,5.13
2017-11-15T03:31:16.954Z,5.10
2017-11-15T03:32:16.867Z,5.17
2017-11-15T03:33:16.784Z,5.04
2017-11-15T03:34:16.686Z,5.04
2017-11-15T03:35:16.604Z,5.10
2017-11-15T03:36:16.506Z,5.09
2017-11-15T03:37:16.418Z,4.95
2017-11-15T03:38:16.343Z,4.95
2017-11-15T03:39:16.247Z,4.96
2017-11-15T03:40:16.184Z,5.01
2017-11-15T03:41:16.114Z,4.92
2017-11-15T03:42:15.972Z,4.95
2017-11-15T03:43:15.895Z,4.76
2017-11-15T03:44:15.794Z,4.88
2017-11-15T03:45:15.712Z,4.88
2017-11-15T03:46:15.627Z,4.94
2017-11-15T03:47:15.529Z,4.84
2017-11-15T03:48:15.438Z,4.89
2017-11-15T03:49:15.387Z,4.76
2017-11-15T03:50:15.280Z,4.73
2017-11-15T03:51:15.188Z,4.86
2017-11-15T03:52:15.090Z,4.88
2017-11-15T03:53:14.995Z,4.89
2017-11-15T03:54:14.908Z,4.86
2017-11-15T03:55:14.815Z,4.84
2017-11-15T03:56:14.728Z,4.83
2017-11-15T03:57:14.633Z,4.95
2017-11-15T03:58:14.554Z,4.95
2017-11-15T03:59:14.464Z,4.86
2017-11-15T04:00:14.377Z,5.01
2017-11-15T04:01:14.294Z,4.95
2017-11-15T04:02:14.195Z,4.86
2017-11-15T04:03:14.106Z,4.96
2017-11-15T04:04:14.044Z,4.95
2017-11-15T04:05:13.933Z,4.99
2017-11-15T04:06:13.836Z,4.99
2017-11-15T04:07:13.746Z,5.04
2017-11-15T04:08:13.670Z,4.98
2017-11-15T04:09:13.571Z,4.92
2017-11-15T04:10:13.488Z,4.98
2017-11-15T04:11:13.390Z,4.86
2017-11-15T04:12:13.365Z,4.89
2017-11-15T04:13:13.215Z,4.96
2017-11-15T04:14:13.123Z,5.04
2017-11-15T04:15:13.063Z,5.01
2017-11-15T04:16:12.953Z,5.04
2017-11-15T04:17:12.866Z,5.09
2017-11-15T04:18:12.776Z,5.07
2017-11-15T04:19:12.684Z,5.12
2017-11-15T04:20:12.599Z,5.04
2017-11-15T04:21:12.511Z,5.12
2017-11-15T04:22:12.411Z,5.05
2017-11-15T04:23:12.325Z,5.09
2017-11-15T04:24:12.246Z,5.05
2017-11-15T04:25:12.144Z,5.01
2017-11-15T04:26:12.055Z,4.95
2017-11-15T04:27:11.968Z,4.98
2017-11-15T04:28:11.878Z,4.96
2017-11-15T04:29:11.795Z,4.99
2017-11-15T04:30:11.719Z,4.80
2017-11-15T04:31:11.617Z,4.89
2017-11-15T04:32:11.523Z,4.88
2017-11-15T04:33:11.444Z,4.96
2017-11-15T04:34:11.349Z,5.01
2017-11-15T04:35:11.259Z,4.84
2017-11-15T04:36:11.166Z,4.70
2017-11-15T04:37:11.076Z,4.67
2017-11-15T04:38:10.989Z,4.44
2017-11-15T04:39:10.900Z,4.73
2017-11-15T04:40:10.831Z,4.88
2017-11-15T04:41:10.723Z,4.98
2017-11-15T04:42:10.640Z,5.04
2017-11-15T04:43:10.545Z,4.84
2017-11-15T04:44:10.456Z,4.80
2017-11-15T04:45:10.366Z,4.79
2017-11-15T04:46:10.283Z,4.79
2017-11-15T04:47:10.186Z,4.75
2017-11-15T04:48:10.101Z,4.84
2017-11-15T04:49:10.011Z,4.95
2017-11-15T04:50:09.917Z,4.88
2017-11-15T04:51:09.856Z,4.86
2017-11-15T04:52:09.746Z,4.65
2017-11-15T04:53:09.720Z,4.89
2017-11-15T04:54:09.567Z,4.73
2017-11-15T04:55:09.472Z,4.77
2017-11-15T04:56:09.390Z,4.65
2017-11-15T04:57:09.295Z,4.70
2017-11-15T04:58:09.204Z,4.67
2017-11-15T04:59:09.113Z,4.64
2017-11-15T05:00:09.025Z,4.57
2017-11-15T05:01:08.942Z,4.65
2017-11-15T05:02:08.854Z,4.54
2017-11-15T05:03:08.781Z,4.57
2017-11-15T05:04:08.673Z,4.62
2017-11-15T05:05:08.584Z,4.73
2017-11-15T05:06:08.490Z,4.69
2017-11-15T05:07:08.410Z,4.54
2017-11-15T05:08:08.336Z,4.55
2017-11-15T05:09:08.222Z,4.44
2017-11-15T05:10:08.134Z,4.47
2017-11-15T05:11:08.046Z,4.40
2017-11-15T05:12:07.956Z,4.36
2017-11-15T05:13:07.866Z,4.46
2017-11-15T05:14:07.777Z,4.46
2017-11-15T05:15:07.708Z,4.44
2017-11-15T05:16:07.609Z,4.44
2017-11-15T05:17:07.511Z,4.51
2017-11-15T05:18:07.436Z,4.52
2017-11-15T05:19:07.348Z,4.37
2017-11-15T05:20:07.264Z,4.37
2017-11-15T05:21:07.155Z,4.34
2017-11-15T05:22:07.063Z,4.28
2017-11-15T05:23:06.968Z,4.39
2017-11-15T05:24:06.883Z,4.43
2017-11-15T05:25:06.793Z,4.46
2017-11-15T05:26:06.706Z,4.46
2017-11-15T05:27:06.616Z,4.47
2017-11-15T05:28:06.524Z,4.50
2017-11-15T05:29:06.441Z,4.47
2017-11-15T05:30:06.344Z,4.42
2017-11-15T05:31:06.260Z,4.46
2017-11-15T05:32:06.189Z,4.40
2017-11-15T05:33:06.089Z,4.37
2017-11-15T05:34:06.011Z,4.40
2017-11-15T05:35:05.903Z,4.44
2017-11-15T05:36:05.823Z,4.29
2017-11-15T05:37:05.741Z,4.28
2017-11-15T05:38:05.634Z,4.34
2017-11-15T05:39:05.562Z,4.24
2017-11-15T05:40:05.451Z,4.26
2017-11-15T05:41:05.361Z,4.16
2017-11-15T05:42:05.305Z,4.10
2017-11-15T05:43:05.189Z,4.16
2017-11-15T05:44:05.098Z,4.22
2017-11-15T05:45:05.005Z,4.21
2017-11-15T05:46:04.936Z,4.19
2017-11-15T05:47:04.830Z,4.15
2017-11-15T05:48:04.742Z,4.14
2017-11-15T05:49:04.650Z,4.24
2017-11-15T05:50:04.570Z,4.15
2017-11-15T05:51:04.478Z,4.16
2017-11-15T05:52:04.387Z,4.29
2017-11-15T05:53:04.303Z,4.36
2017-11-15T05:54:04.209Z,4.32
2017-11-15T05:55:04.113Z,4.14
2017-11-15T05:56:04.035Z,4.21
2017-11-15T05:57:03.937Z,4.15
2017-11-15T05:58:03.845Z,4.19
2017-11-15T05:59:03.768Z,4.14
2017-11-15T06:00:03.666Z,4.19
2017-11-15T06:01:03.575Z,4.21
2017-11-15T06:02:03.494Z,4.22
2017-11-15T06:03:03.446Z,4.18
2017-11-15T06:04:03.315Z,4.19
2017-11-15T06:05:03.226Z,4.16
2017-11-15T06:06:03.134Z,4.28
2017-11-15T06:07:03.045Z,4.28
2017-11-15T06:08:02.953Z,4.26
2017-11-15T06:09:02.861Z,4.15
2017-11-15T06:10:02.879Z,4.16
2017-11-15T06:11:02.790Z,4.24
2017-11-15T06:12:02.684Z,4.16
2017-11-15T06:13:02.565Z,4.15
2017-11-15T06:14:02.449Z,4.08
2017-11-15T06:15:02.415Z,4.22
2017-11-15T06:16:02.276Z,4.14
2017-11-15T06:17:02.185Z,4.22
2017-11-15T06:18:02.124Z,4.19
2017-11-15T06:19:02.042Z,4.18
2017-11-15T06:20:01.938Z,4.18
2017-11-15T06:21:01.886Z,4.21
2017-11-15T06:22:01.721Z,4.10
2017-11-15T06:23:01.612Z,4.14
2017-11-15T06:24:01.618Z,4.12
2017-11-15T06:25:01.463Z,4.18
2017-11-15T06:26:01.444Z,4.28
2017-11-15T06:27:01.255Z,4.18
2017-11-15T06:28:01.191Z,4.15
2017-11-15T06:29:01.152Z,4.12
2017-11-15T06:30:00.996Z,4.21
2017-11-15T06:31:00.913Z,4.18
2017-11-15T06:32:00.918Z,4.15
2017-11-15T06:33:00.903Z,4.10
2017-11-15T06:34:00.648Z,3.92
2017-11-15T06:35:00.551Z,3.97
2017-11-15T06:36:00.630Z,4.08
2017-11-15T06:37:00.508Z,4.22
2017-11-15T06:38:00.265Z,4.21
2017-11-15T06:39:00.176Z,4.14
2017-11-15T06:40:00.091Z,4.16
2017-11-15T06:40:59.995Z,4.19
2017-11-15T06:41:59.913Z,4.19
2017-11-15T06:42:59.815Z,4.15
2017-11-15T06:43:59.741Z,4.06
2017-11-15T06:44:59.649Z,4.07
2017-11-15T06:45:59.553Z,3.97
2017-11-15T06:46:59.461Z,4.01
2017-11-15T06:47:59.376Z,4.19
2017-11-15T06:48:59.283Z,4.15
2017-11-15T06:49:59.201Z,4.19
2017-11-15T06:50:59.101Z,4.18
2017-11-15T06:51:59.041Z,4.15
2017-11-15T06:52:58.930Z,4.06
2017-11-15T06:53:58.840Z,3.97
2017-11-15T06:54:58.746Z,4.00
2017-11-15T06:55:58.660Z,4.00
2017-11-15T06:56:58.561Z,3.89
2017-11-15T06:57:58.484Z,4.16
2017-11-15T06:58:58.398Z,4.26
2017-11-15T06:59:58.301Z,4.25
2017-11-15T07:00:58.207Z,4.28
2017-11-15T07:01:58.125Z,4.39
2017-11-15T07:02:58.027Z,4.44
2017-11-15T07:03:57.934Z,4.40
2017-11-15T07:04:57.843Z,4.40
2017-11-15T07:05:57.793Z,4.52
2017-11-15T07:06:57.669Z,4.55
2017-11-15T07:07:57.580Z,4.59
2017-11-15T07:08:57.488Z,4.57
2017-11-15T07:09:57.399Z,4.52
2017-11-15T07:10:57.320Z,4.70
2017-11-15T07:11:57.216Z,4.76
2017-11-15T07:12:57.130Z,4.67
2017-11-15T07:13:57.047Z,4.58
2017-11-15T07:14:56.956Z,4.73
2017-11-15T07:15:56.865Z,4.79
2017-11-15T07:16:56.780Z,4.77
2017-11-15T07:17:56.684Z,4.83
2017-11-15T07:18:56.599Z,4.77
2017-11-15T07:19:56.526Z,4.79
2017-11-15T07:20:56.423Z,4.75
2017-11-15T07:21:56.343Z,4.88
2017-11-15T07:22:56.249Z,4.96
2017-11-15T07:23:56.164Z,5.13
2017-11-15T07:24:56.086Z,5.17
2017-11-15T07:25:55.992Z,5.22
2017-11-15T07:26:55.909Z,5.37
2017-11-15T07:27:55.810Z,5.38
2017-11-15T07:28:55.747Z,5.68
2017-11-15T07:29:55.708Z,5.98
2017-11-15T07:30:55.541Z,6.19
2017-11-15T07:31:56.175Z,6.44
2017-11-15T07:32:55.361Z,6.68
2017-11-15T07:33:55.277Z,6.80
2017-11-15T07:34:55.203Z,7.08
2017-11-15T07:35:55.107Z,7.42
2017-11-15T07:36:55.019Z,7.74
2017-11-15T07:37:54.939Z,7.78
2017-11-15T07:38:54.862Z,7.99
2017-11-15T07:39:54.807Z,8.12
2017-11-15T07:40:54.688Z,8.26
2017-11-15T07:41:54.601Z,8.35
2017-11-15T07:42:54.520Z,8.54
2017-11-15T07:43:54.434Z,8.68
2017-11-15T07:44:54.361Z,8.88
2017-11-15T07:45:54.268Z,9.02
2017-11-15T07:46:54.178Z,8.97
2017-11-15T07:47:54.099Z,9.05
2017-11-15T07:48:54.017Z,9.30
2017-11-15T07:49:53.942Z,9.39
2017-11-15T07:50:53.855Z,9.49
2017-11-15T07:51:53.763Z,9.48
2017-11-15T07:52:53.681Z,9.40
2017-11-15T07:53:53.601Z,9.60
2017-11-15T07:54:53.517Z,9.56
2017-11-15T07:55:53.435Z,9.93
2017-11-15T07:56:53.371Z,10.18
2017-11-15T07:57:53.276Z,10.24
2017-11-15T07:58:53.192Z,10.42
2017-11-15T07:59:53.112Z,10.56
2017-11-15T08:00:53.028Z,10.68
2017-11-15T08:01:52.959Z,10.71
2017-11-15T08:02:52.868Z,11.01
2017-11-15T08:03:52.784Z,11.03
2017-11-15T08:04:52.714Z,11.21
2017-11-15T08:05:52.627Z,11.19
2017-11-15T08:06:52.543Z,11.38
2017-11-15T08:07:52.470Z,11.47
2017-11-15T08:08:52.386Z,11.50
2017-11-15T08:09:52.296Z,11.52
2017-11-15T08:10:52.217Z,11.59
2017-11-15T08:11:52.139Z,11.43
2017-11-15T08:12:52.079Z,11.75
2017-11-15T08:13:51.974Z,11.83
2017-11-15T08:14:51.898Z,12.16
2017-11-15T08:15:51.829Z,12.09
2017-11-15T08:16:51.743Z,11.96
2017-11-15T08:17:51.664Z,11.82
2017-11-15T08:18:51.584Z,11.75
2017-11-15T08:19:51.532Z,11.94
2017-11-15T08:20:51.422Z,12.09
2017-11-15T08:21:51.343Z,12.02
2017-11-15T08:22:51.279Z,12.27
2017-11-15T08:23:51.176Z,12.30
2017-11-15T08:24:51.097Z,12.67
2017-11-15T08:25:51.020Z,12.75
2017-11-15T08:26:50.938Z,12.75
2017-11-15T08:27:50.860Z,12.87
2017-11-15T08:28:50.787Z,13.03
2017-11-15T08:29:50.701Z,13.21
2017-11-15T08:30:50.621Z,13.06
2017-11-15T08:31:50.550Z,13.25
2017-11-15T08:32:50.466Z,13.49
2017-11-15T08:33:50.388Z,13.76
2017-11-15T08:34:50.309Z,13.61
2017-11-15T08:35:50.225Z,13.81
2017-11-15T08:36:50.160Z,13.81
2017-11-15T08:37:50.077Z,13.80
2017-11-15T08:38:49.996Z,14.04
2017-11-15T08:39:49.914Z,13.84
2017-11-15T08:40:49.846Z,14.07
2017-11-15T08:41:49.765Z,14.20
2017-11-15T08:42:49.688Z,14.19
2017-11-15T08:43:49.608Z,14.37
2017-11-15T08:44:49.528Z,14.49
2017-11-15T08:45:49.447Z,14.62
2017-11-15T08:46:49.367Z,14.34
2017-11-15T08:47:49.293Z,14.31
2017-11-15T08:48:49.211Z,14.56
2017-11-15T08:49:49.133Z,14.67
2017-11-15T08:50:49.058Z,14.53
2017-11-15T08:51:48.980Z,14.65
2017-11-15T08:52:48.901Z,14.75
2017-11-15T08:53:48.824Z,14.80
2017-11-15T08:54:48.757Z,14.83
2017-11-15T08:55:48.676Z,14.84
2017-11-15T08:56:48.594Z,14.83
2017-11-15T08:57:48.520Z,14.99
2017-11-15T08:58:48.445Z,15.06
2017-11-15T08:59:48.365Z,15.03
2017-11-15T09:00:48.287Z,15.01
2017-11-15T09:01:48.231Z,15.17
2017-11-15T09:02:48.133Z,14.93
2017-11-15T09:03:48.055Z,15.13
2017-11-15T09:04:47.983Z,15.26
2017-11-15T09:05:47.899Z,15.30
2017-11-15T09:06:47.830Z,15.27
2017-11-15T09:07:47.751Z,15.23
2017-11-15T09:08:47.676Z,15.49
2017-11-15T09:09:47.595Z,15.70
2017-11-15T09:10:47.523Z,15.76
2017-11-15T09:11:47.442Z,15.63
2017-11-15T09:12:47.369Z,15.78
2017-11-15T09:13:47.349Z,15.49
2017-11-15T09:14:47.215Z,15.60
2017-11-15T09:15:47.146Z,15.92
2017-11-15T09:16:47.075Z,16.01
2017-11-15T09:17:46.993Z,16.26
2017-11-15T09:18:46.916Z,16.09
2017-11-15T09:19:46.841Z,16.26
2017-11-15T09:20:46.763Z,16.26
2017-11-15T09:21:46.693Z,16.30
2017-11-15T09:22:46.617Z,16.25
2017-11-15T09:23:46.543Z,16.15
2017-11-15T09:24:46.467Z,16.40
2017-11-15T09:25:46.390Z,16.41
2017-11-15T09:26:46.317Z,16.11
2017-11-15T09:27:46.238Z,16.41
2017-11-15T09:28:46.169Z,16.63
2017-11-15T09:29:46.087Z,16.74
2017-11-15T09:30:46.010Z,16.71
2017-11-15T09:31:45.939Z,16.73
2017-11-15T09:32:45.862Z,16.89
2017-11-15T09:33:45.791Z,16.85
2017-11-15T09:34:45.712Z,16.85
2017-11-15T09:35:45.647Z,16.86
2017-11-15T09:36:45.563Z,17.11
2017-11-15T09:37:45.495Z,17.10
2017-11-15T09:38:45.416Z,17.10
2017-11-15T09:39:45.343Z,17.13
2017-11-15T09:40:45.278Z,17.04
2017-11-15T09:41:45.191Z,16.89
2017-11-15T09:42:45.119Z,17.13
2017-11-15T09:43:45.045Z,17.20
2017-11-15T09:44:44.987Z,17.07
2017-11-15T09:45:44.901Z,17.25
2017-11-15T09:46:44.827Z,17.20
2017-11-15T09:47:44.765Z,17.26
2017-11-15T09:48:44.679Z,17.38
2017-11-15T09:49:44.600Z,17.35
2017-11-15T09:50:44.523Z,17.17
2017-11-15T09:51:44.449Z,17.10
2017-11-15T09:52:44.383Z,17.25
2017-11-15T09:53:44.305Z,16.89
2017-11-15T09:54:44.230Z,17.14
2017-11-15T09:55:44.158Z,17.23
2017-11-15T09:56:44.099Z,17.23
2017-11-15T09:57:44.007Z,16.83
2017-11-15T09:58:43.949Z,17.08
2017-11-15T09:59:43.871Z,16.86
2017-11-15T10:00:43.789Z,17.18
2017-11-15T10:01:43.725Z,17.59
2017-11-15T10:02:43.642Z,17.64
2017-11-15T10:03:43.567Z,17.41
2017-11-15T10:04:43.499Z,17.63
2017-11-15T10:05:43.420Z,17.35
2017-11-15T10:06:43.350Z,17.18
2017-11-15T10:07:43.276Z,17.25
2017-11-15T10:08:43.203Z,16.85
2017-11-15T10:09:43.132Z,17.08
2017-11-15T10:10:43.066Z,17.20
2017-11-15T10:11:42.980Z,17.28
2017-11-15T10:12:42.914Z,17.41
2017-11-15T10:13:42.846Z,17.17
2017-11-15T10:14:42.763Z,17.53
2017-11-15T10:15:42.694Z,17.50
2017-11-15T10:16:42.622Z,17.62
2017-11-15T10:17:42.578Z,17.64
2017-11-15T10:18:42.473Z,17.59
2017-11-15T10:19:42.403Z,17.85
2017-11-15T10:20:42.332Z,17.91
2017-11-15T10:21:42.261Z,17.87
2017-11-15T10:22:42.213Z,17.71
2017-11-15T10:23:42.126Z,16.99
2017-11-15T10:24:42.041Z,17.17
2017-11-15T10:25:41.974Z,17.40
2017-11-15T10:26:41.897Z,17.38
2017-11-15T10:27:41.824Z,17.35
2017-11-15T10:28:41.754Z,17.35
2017-11-15T10:29:41.685Z,17.38
2017-11-15T10:30:41.612Z,17.47
2017-11-15T10:31:41.537Z,17.44
2017-11-15T10:32:41.464Z,17.40
2017-11-15T10:33:41.392Z,17.50
2017-11-15T10:34:41.325Z,17.82
2017-11-15T10:35:41.261Z,17.88
2017-11-15T10:36:41.192Z,17.97
2017-11-15T10:37:41.115Z,17.87
2017-11-15T10:38:41.037Z,17.78
2017-11-15T10:39:40.965Z,17.66
2017-11-15T10:40:40.897Z,17.79
2017-11-15T10:41:40.829Z,17.73
2017-11-15T10:42:40.755Z,17.78
2017-11-15T10:43:40.680Z,17.76
2017-11-15T10:44:40.607Z,17.71
2017-11-15T10:45:40.538Z,17.81
2017-11-15T10:46:40.540Z,17.57
2017-11-15T10:47:40.402Z,17.67
2017-11-15T10:48:40.324Z,17.79
2017-11-15T10:49:40.255Z,17.79
2017-11-15T10:50:40.186Z,17.67
2017-11-15T10:51:40.116Z,17.69
2017-11-15T10:52:40.046Z,17.69
2017-11-15T10:53:39.975Z,17.76
2017-11-15T10:54:39.925Z,17.73
2017-11-15T10:55:39.831Z,17.84
2017-11-15T10:56:39.766Z,17.73
2017-11-15T10:57:39.689Z,17.81
2017-11-15T10:58:39.623Z,17.84
2017-11-15T10:59:39.544Z,17.87
2017-11-15T11:00:39.481Z,17.79
2017-11-15T11:01:39.403Z,17.74
2017-11-15T11:02:39.335Z,17.87
2017-11-15T11:03:39.264Z,17.87
2017-11-15T11:04:39.192Z,17.97
2017-11-15T11:05:39.125Z,17.95
2017-11-15T11:06:39.052Z,17.87
2017-11-15T11:07:38.981Z,17.92
2017-11-15T11:08:38.912Z,17.94
2017-11-15T11:09:38.836Z,17.94
2017-11-15T11:10:38.765Z,17.94
2017-11-15T11:11:38.691Z,17.95
2017-11-15T11:12:38.618Z,18.09
2017-11-15T11:13:38.547Z,17.92
2017-11-15T11:14:38.474Z,17.67
2017-11-15T11:15:38.406Z,17.79
2017-11-15T11:16:38.335Z,17.88
2017-11-15T11:17:38.259Z,17.78
2017-11-15T11:18:38.186Z,17.78
2017-11-15T11:19:38.127Z,17.88
2017-11-15T11:20:38.043Z,18.00
2017-11-15T11:21:37.973Z,17.97
2017-11-15T11:22:37.898Z,17.84
2017-11-15T11:23:37.825Z,17.88
2017-11-15T11:24:37.752Z,17.88
2017-11-15T11:25:37.682Z,17.78
2017-11-15T11:26:37.605Z,17.84
2017-11-15T11:27:37.533Z,17.91
2017-11-15T11:28:37.464Z,17.46
2017-11-15T11:29:37.386Z,17.67
2017-11-15T11:30:37.309Z,17.67
2017-11-15T11:31:37.235Z,17.71
2017-11-15T11:32:37.174Z,17.82
2017-11-15T11:33:37.087Z,17.94
2017-11-15T11:34:37.027Z,18.03
2017-11-15T11:35:36.937Z,17.73
2017-11-15T11:36:36.867Z,17.74
2017-11-15T11:37:36.787Z,17.76
2017-11-15T11:38:36.743Z,17.76
2017-11-15T11:39:36.649Z,17.59
2017-11-15T11:40:36.552Z,17.59
2017-11-15T11:41:36.478Z,17.50
2017-11-15T11:42:36.410Z,17.63
2017-11-15T11:43:36.324Z,17.63
2017-11-15T11:44:36.249Z,17.66
2017-11-15T11:45:36.165Z,17.76
2017-11-15T11:46:36.084Z,17.40
2017-11-15T11:47:36.006Z,17.25
2017-11-15T11:48:35.928Z,17.06
2017-11-15T11:49:35.851Z,17.28
2017-11-15T11:50:35.779Z,16.45
2017-11-15T11:51:35.697Z,16.49
2017-11-15T11:52:35.625Z,16.95
2017-11-15T11:53:35.531Z,17.10
2017-11-15T11:54:35.459Z,17.15
2017-11-15T11:55:35.371Z,17.07
2017-11-15T11:56:35.289Z,17.13
2017-11-15T11:57:35.211Z,16.99
2017-11-15T11:58:35.132Z,16.96
2017-11-15T11:59:35.051Z,16.92
2017-11-15T12:00:34.971Z,16.65
2017-11-15T12:01:34.892Z,16.63
2017-11-15T12:02:34.803Z,16.63
2017-11-15T12:03:34.721Z,16.77
2017-11-15T12:04:34.661Z,16.62
2017-11-15T12:05:34.565Z,16.58
2017-11-15T12:06:34.485Z,16.30
2017-11-15T12:07:34.400Z,16.40
2017-11-15T12:08:34.325Z,16.25
2017-11-15T12:09:34.241Z,16.37
2017-11-15T12:10:34.159Z,16.44
2017-11-15T12:11:34.080Z,16.11
2017-11-15T12:12:33.995Z,15.33
2017-11-15T12:13:33.922Z,15.01
2017-11-15T12:14:33.829Z,15.43
2017-11-15T12:15:33.751Z,15.45
2017-11-15T12:16:33.670Z,15.64
2017-11-15T12:17:33.587Z,15.42
2017-11-15T12:18:33.511Z,15.24
2017-11-15T12:19:33.440Z,15.41
2017-11-15T12:20:33.346Z,15.49
2017-11-15T12:21:33.258Z,15.01
2017-11-15T12:22:33.176Z,14.60
2017-11-15T12:23:33.100Z,14.50
2017-11-15T12:24:33.012Z,14.27
2017-11-15T12:25:32.939Z,14.69
2017-11-15T12:26:32.854Z,14.74
2017-11-15T12:27:32.760Z,14.86
2017-11-15T12:28:32.693Z,14.98
2017-11-15T12:29:32.606Z,14.90
2017-11-15T12:30:32.539Z,14.80
2017-11-15T12:31:32.439Z,14.78
2017-11-15T12:32:32.356Z,14.56
2017-11-15T12:33:32.272Z,14.67
2017-11-15T12:34:32.186Z,14.80
2017-11-15T12:35:32.125Z,14.83
2017-11-15T12:36:32.023Z,14.80
2017-11-15T12:37:31.947Z,14.61
2017-11-15T12:38:31.866Z,14.60
2017-11-15T12:39:31.778Z,14.68
2017-11-15T12:40:31.690Z,14.29
2017-11-15T12:41:31.730Z,13.88
2017-11-15T12:42:31.540Z,14.06
2017-11-15T12:43:31.452Z,14.04
2017-11-15T12:44:31.382Z,13.79
2017-11-15T12:45:31.286Z,13.20
2017-11-15T12:46:31.202Z,13.41
2017-11-15T12:47:31.143Z,13.65
2017-11-15T12:48:31.046Z,13.67
2017-11-15T12:49:30.950Z,13.55
2017-11-15T12:50:30.869Z,13.62
2017-11-15T12:51:30.784Z,13.81
2017-11-15T12:52:30.705Z,13.63
2017-11-15T12:53:30.629Z,13.43
2017-11-15T12:54:30.571Z,13.65
2017-11-15T12:55:30.458Z,13.81
2017-11-15T12:56:30.369Z,13.62
2017-11-15T12:57:30.292Z,13.21
2017-11-15T12:58:30.207Z,13.18
2017-11-15T12:59:30.118Z,13.00
2017-11-15T13:00:30.035Z,13.22
2017-11-15T13:01:29.953Z,13.14
2017-11-15T13:02:29.867Z,13.18
2017-11-15T13:03:29.789Z,12.93
2017-11-15T13:04:29.708Z,13.04
2017-11-15T13:05:29.633Z,13.29
2017-11-15T13:06:29.544Z,13.40
2017-11-15T13:07:29.453Z,13.41